createdAt,value
2022-08-17T00:00:43.215Z,21.66
2022-08-17T00:03:13.672Z,21.63
2022-08-17T00:05:46.716Z,21.60
2022-08-17T00:08:18.044Z,21.59
2022-08-17T00:10:47.738Z,21.55
2022-08-17T00:13:21.266Z,21.51
2022-08-17T00:15:49.959Z,21.49
2022-08-17T00:19:01.048Z,21.45
2022-08-17T00:21:10.463Z,21.41
2022-08-17T00:23:47.677Z,21.37
2022-08-17T00:26:43.135Z,21.33
2022-08-17T00:29:09.861Z,21.29
2022-08-17T00:31:48.569Z,21.27
2022-08-17T00:34:16.849Z,21.25
2022-08-17T00:36:45.194Z,21.23
2022-08-17T00:39:13.471Z,21.20
2022-08-17T00:41:42.422Z,21.18
2022-08-17T00:44:14.147Z,21.17
2022-08-17T00:46:45.436Z,21.15
2022-08-17T00:49:19.357Z,21.11
2022-08-17T00:51:54.364Z,21.07
2022-08-17T00:54:28.674Z,21.02
2022-08-17T00:57:00.947Z,20.98
2022-08-17T00:59:36.657Z,20.94
2022-08-17T01:02:06.690Z,20.91
2022-08-17T01:04:35.121Z,20.87
2022-08-17T01:07:06.119Z,20.83
2022-08-17T01:09:35.159Z,20.82
2022-08-17T01:12:06.558Z,20.78
2022-08-17T01:14:39.830Z,20.74
2022-08-17T01:17:09.042Z,20.72
2022-08-17T01:19:40.605Z,20.70
2022-08-17T01:22:23.049Z,20.66
2022-08-17T01:24:54.629Z,20.61
2022-08-17T01:27:22.966Z,20.58
2022-08-17T01:29:58.676Z,20.54
2022-08-17T01:32:28.071Z,20.53
2022-08-17T01:34:58.117Z,20.51
2022-08-17T01:37:34.442Z,20.49
2022-08-17T01:40:08.678Z,20.50
2022-08-17T01:42:44.215Z,20.53
2022-08-17T01:45:17.729Z,20.56
2022-08-17T01:47:46.188Z,20.57
2022-08-17T01:50:18.234Z,20.57
2022-08-17T01:52:51.631Z,20.57
2022-08-17T01:55:27.485Z,20.54
2022-08-17T01:57:56.039Z,20.55
2022-08-17T02:00:24.755Z,20.54
2022-08-17T02:02:52.942Z,20.54
2022-08-17T02:05:21.423Z,20.52
2022-08-17T02:08:00.455Z,20.48
2022-08-17T02:10:34.066Z,20.46
2022-08-17T02:13:03.371Z,20.45
2022-08-17T02:15:32.114Z,20.42
2022-08-17T02:18:00.748Z,20.42
2022-08-17T02:20:42.205Z,20.41
2022-08-17T02:23:14.414Z,20.40
2022-08-17T02:25:44.944Z,20.40
2022-08-17T02:28:13.033Z,20.41
2022-08-17T02:30:59.370Z,20.43
2022-08-17T02:33:42.227Z,20.42
2022-08-17T02:36:13.917Z,20.43
2022-08-17T02:38:43.702Z,20.45
2022-08-17T02:41:13.062Z,20.45
2022-08-17T02:43:41.298Z,20.46
2022-08-17T02:46:10.111Z,20.46
2022-08-17T02:48:38.255Z,20.47
2022-08-17T02:51:06.972Z,20.48
2022-08-17T02:53:35.785Z,20.49
2022-08-17T02:56:06.202Z,20.50
2022-08-17T02:58:36.096Z,20.50
2022-08-17T03:01:05.821Z,20.49
2022-08-17T03:03:34.397Z,20.49
2022-08-17T03:06:02.832Z,20.48
2022-08-17T03:08:31.629Z,20.47
2022-08-17T03:10:59.875Z,20.46
2022-08-17T03:13:30.779Z,20.43
2022-08-17T03:15:59.102Z,20.42
2022-08-17T03:18:28.005Z,20.40
2022-08-17T03:20:58.490Z,20.38
2022-08-17T03:23:29.563Z,20.36
2022-08-17T03:25:58.954Z,20.34
2022-08-17T03:28:29.266Z,20.31
2022-08-17T03:30:57.463Z,20.28
2022-08-17T03:33:25.674Z,20.29
2022-08-17T03:35:53.934Z,20.27
2022-08-17T03:38:24.831Z,20.26
2022-08-17T03:40:59.396Z,20.24
2022-08-17T03:43:32.841Z,20.22
2022-08-17T03:46:27.800Z,20.21
2022-08-17T03:49:21.275Z,20.18
2022-08-17T03:52:07.128Z,20.15
2022-08-17T03:54:53.011Z,20.10
2022-08-17T03:57:21.195Z,20.11
2022-08-17T03:59:51.393Z,20.11
2022-08-17T04:02:24.253Z,20.09
2022-08-17T04:04:54.337Z,20.08
2022-08-17T04:07:25.589Z,20.08
2022-08-17T04:09:54.261Z,20.09
2022-08-17T04:12:25.115Z,20.10
2022-08-17T04:14:55.349Z,20.11
2022-08-17T04:17:26.853Z,20.12
2022-08-17T04:19:56.538Z,20.13
2022-08-17T04:22:32.681Z,20.16
2022-08-17T04:25:05.383Z,20.18
2022-08-17T04:27:33.728Z,20.23
2022-08-17T04:30:03.745Z,20.27
2022-08-17T04:33:03.989Z,20.32
2022-08-17T04:35:23.453Z,20.36
2022-08-17T04:37:51.802Z,20.42
2022-08-17T04:40:40.511Z,20.46
2022-08-17T04:43:12.590Z,20.51
2022-08-17T04:45:51.243Z,20.57
2022-08-17T04:48:35.255Z,20.61
2022-08-17T04:51:09.854Z,20.67
2022-08-17T04:53:40.211Z,20.73
2022-08-17T04:56:15.940Z,20.79
2022-08-17T04:58:47.829Z,20.84
2022-08-17T05:01:18.532Z,20.88
2022-08-17T05:03:53.375Z,20.91
2022-08-17T05:06:21.592Z,20.94
2022-08-17T05:08:49.918Z,20.99
2022-08-17T05:11:18.464Z,21.03
2022-08-17T05:13:50.068Z,21.09
2022-08-17T05:16:21.542Z,21.13
2022-08-17T05:18:49.903Z,21.16
2022-08-17T05:21:19.246Z,21.20
2022-08-17T05:23:53.930Z,21.25
2022-08-17T05:26:26.679Z,21.31
2022-08-17T05:29:00.491Z,21.37
2022-08-17T05:31:32.676Z,21.45
2022-08-17T05:34:00.844Z,21.54
2022-08-17T05:36:43.247Z,21.60
2022-08-17T05:39:15.738Z,21.64
2022-08-17T05:41:48.696Z,21.70
2022-08-17T05:44:17.852Z,21.77
2022-08-17T05:46:51.137Z,21.82
2022-08-17T05:49:24.578Z,21.89
2022-08-17T05:52:20.071Z,21.93
2022-08-17T05:55:06.260Z,21.96
2022-08-17T05:58:08.804Z,22.01
2022-08-17T06:00:48.118Z,22.06
2022-08-17T06:03:45.574Z,22.10
2022-08-17T06:06:39.841Z,22.12
2022-08-17T06:09:33.585Z,22.20
2022-08-17T06:12:20.086Z,22.26
2022-08-17T06:15:07.609Z,22.30
2022-08-17T06:17:36.777Z,22.37
2022-08-17T06:20:11.950Z,22.43
2022-08-17T06:22:45.677Z,22.46
2022-08-17T06:25:19.469Z,22.51
2022-08-17T06:27:53.483Z,22.55
2022-08-17T06:30:26.240Z,22.61
2022-08-17T06:32:59.531Z,22.65
2022-08-17T06:35:39.980Z,22.68
2022-08-17T06:38:34.968Z,22.67
2022-08-17T06:41:16.370Z,22.64
2022-08-17T06:44:04.689Z,22.62
2022-08-17T06:46:38.545Z,22.60
2022-08-17T06:49:17.681Z,22.58
2022-08-17T06:51:53.694Z,22.56
2022-08-17T06:54:35.038Z,22.53
2022-08-17T06:57:14.816Z,22.51
2022-08-17T06:59:55.755Z,22.49
2022-08-17T07:02:52.487Z,22.50
2022-08-17T07:05:26.246Z,22.54
2022-08-17T07:08:04.409Z,22.55
2022-08-17T07:10:44.696Z,22.51
2022-08-17T07:13:32.599Z,22.42
2022-08-17T07:16:16.737Z,22.37
2022-08-17T07:18:45.387Z,22.32
2022-08-17T07:21:31.540Z,22.28
2022-08-17T07:24:29.390Z,22.26
2022-08-17T07:27:16.216Z,22.25
2022-08-17T07:29:53.658Z,22.26
2022-08-17T07:32:27.718Z,22.27
2022-08-17T07:35:11.848Z,22.26
2022-08-17T07:37:42.900Z,22.30
2022-08-17T07:40:38.094Z,22.32
2022-08-17T07:43:23.082Z,22.35
2022-08-17T07:46:36.182Z,22.44
2022-08-17T07:49:35.232Z,22.56
2022-08-17T07:52:24.262Z,22.65
2022-08-17T07:54:57.471Z,22.71
2022-08-17T07:57:36.659Z,22.75
2022-08-17T08:00:32.180Z,22.83
2022-08-17T08:03:26.221Z,22.87
2022-08-17T08:06:00.249Z,22.99
2022-08-17T08:08:33.538Z,23.14
2022-08-17T08:11:09.456Z,23.26
2022-08-17T08:13:45.120Z,23.40
2022-08-17T08:16:27.570Z,23.53
2022-08-17T08:18:58.917Z,23.67
2022-08-17T08:21:38.100Z,23.81
2022-08-17T08:24:30.176Z,23.99
2022-08-17T08:27:10.269Z,24.18
2022-08-17T08:29:49.132Z,24.29
2022-08-17T08:32:23.291Z,24.32
2022-08-17T08:35:04.051Z,24.33
2022-08-17T08:37:45.048Z,24.35
2022-08-17T08:40:34.861Z,24.46
2022-08-17T08:43:16.201Z,24.50
2022-08-17T08:45:56.657Z,24.63
2022-08-17T08:48:56.376Z,24.78
2022-08-17T08:51:40.461Z,25.03
2022-08-17T08:54:27.267Z,25.25
2022-08-17T09:00:08.713Z,25.54
2022-08-17T09:03:09.013Z,25.58
2022-08-17T09:06:04.052Z,25.56
2022-08-17T09:08:54.340Z,25.66
2022-08-17T09:11:31.990Z,25.77
2022-08-17T09:14:21.568Z,25.83
2022-08-17T09:17:05.020Z,25.92
2022-08-17T09:19:40.109Z,25.98
2022-08-17T09:22:23.659Z,26.12
2022-08-17T09:24:58.355Z,26.19
2022-08-17T09:27:33.296Z,26.24
2022-08-17T09:30:07.831Z,26.20
2022-08-17T09:32:44.004Z,26.17
2022-08-17T09:35:20.023Z,26.19
2022-08-17T09:37:58.546Z,26.20
2022-08-17T09:40:34.730Z,26.21
2022-08-17T09:43:11.318Z,26.23
2022-08-17T09:45:49.493Z,26.29
2022-08-17T09:48:22.807Z,26.31
2022-08-17T09:51:08.215Z,26.35
2022-08-17T09:53:38.698Z,26.42
2022-08-17T09:56:45.984Z,26.47
2022-08-17T09:59:41.871Z,26.43
2022-08-17T10:02:56.528Z,26.47
2022-08-17T10:05:33.225Z,26.64
2022-08-17T10:08:12.473Z,26.76
2022-08-17T10:10:56.198Z,26.93
2022-08-17T10:13:41.141Z,27.24
2022-08-17T10:16:32.110Z,27.51
2022-08-17T10:19:17.303Z,27.81
2022-08-17T10:22:14.590Z,28.07
2022-08-17T10:25:22.195Z,28.20
2022-08-17T10:27:58.459Z,28.19
2022-08-17T10:30:31.094Z,28.15
2022-08-17T10:33:02.247Z,28.09
2022-08-17T10:35:43.479Z,27.97
2022-08-17T10:38:41.110Z,27.87
2022-08-17T10:41:29.033Z,27.80
2022-08-17T10:44:38.095Z,27.76
2022-08-17T10:47:10.494Z,27.81
2022-08-17T10:49:47.891Z,27.84
2022-08-17T10:52:51.670Z,27.79
2022-08-17T10:55:21.361Z,27.81
2022-08-17T10:57:54.815Z,27.79
2022-08-17T11:01:12.853Z,27.70
2022-08-17T11:03:54.097Z,27.74
2022-08-17T11:06:34.614Z,27.83
2022-08-17T11:09:29.309Z,27.80
2022-08-17T11:12:25.593Z,27.81
2022-08-17T11:15:14.441Z,27.90
2022-08-17T11:18:19.160Z,28.01
2022-08-17T11:21:14.629Z,28.10
2022-08-17T11:24:23.139Z,28.16
2022-08-17T11:27:27.398Z,28.35
2022-08-17T11:30:02.757Z,28.57
2022-08-17T11:32:47.486Z,28.76
2022-08-17T11:35:34.711Z,29.05
2022-08-17T11:38:17.726Z,29.41
2022-08-17T11:41:07.196Z,29.54
2022-08-17T11:44:11.531Z,29.49
2022-08-17T11:47:19.088Z,29.48
2022-08-17T11:50:27.922Z,29.36
2022-08-17T11:52:56.727Z,29.17
2022-08-17T11:56:04.104Z,28.99
2022-08-17T11:58:40.561Z,28.93
2022-08-17T12:01:13.586Z,28.95
2022-08-17T12:03:56.073Z,29.04
2022-08-17T12:06:46.862Z,29.13
2022-08-17T12:09:20.652Z,29.18
2022-08-17T12:12:12.410Z,29.20
2022-08-17T12:15:09.432Z,29.12
2022-08-17T12:17:40.815Z,29.06
2022-08-17T12:20:29.410Z,29.08
2022-08-17T12:23:08.048Z,29.12
2022-08-17T12:25:42.067Z,29.19
2022-08-17T12:28:23.511Z,29.18
2022-08-17T12:30:53.277Z,29.15
2022-08-17T12:33:28.639Z,29.10
2022-08-17T12:36:04.440Z,29.01
2022-08-17T12:38:35.039Z,29.01
2022-08-17T12:41:21.439Z,28.94
2022-08-17T12:44:01.582Z,28.96
2022-08-17T12:46:36.013Z,29.07
2022-08-17T12:49:23.600Z,29.15
2022-08-17T12:52:02.236Z,29.21
2022-08-17T12:54:42.592Z,29.31
2022-08-17T12:57:18.101Z,29.47
2022-08-17T12:59:52.693Z,29.52
2022-08-17T13:02:30.934Z,29.61
2022-08-17T13:05:02.324Z,29.70
2022-08-17T13:07:37.160Z,29.73
2022-08-17T13:10:06.453Z,29.70
2022-08-17T13:12:36.577Z,29.61
2022-08-17T13:15:06.211Z,29.49
2022-08-17T13:17:37.546Z,29.41
2022-08-17T13:20:15.726Z,29.42
2022-08-17T13:22:54.019Z,29.38
2022-08-17T13:25:22.839Z,29.27
2022-08-17T13:27:53.662Z,29.09
2022-08-17T13:30:28.096Z,28.92
2022-08-17T13:32:58.317Z,28.78
2022-08-17T13:35:49.900Z,28.54
2022-08-17T13:38:41.094Z,28.36
2022-08-17T13:41:09.467Z,28.22
2022-08-17T13:43:48.550Z,28.20
2022-08-17T13:46:23.848Z,28.23
2022-08-17T13:49:01.874Z,28.33
2022-08-17T13:51:34.743Z,28.44
2022-08-17T13:54:22.150Z,28.53
2022-08-17T13:56:58.712Z,28.49
2022-08-17T13:59:55.309Z,28.46
2022-08-17T14:02:28.378Z,28.52
2022-08-17T14:05:02.030Z,28.62
2022-08-17T14:07:37.246Z,28.71
2022-08-17T14:10:13.621Z,28.80
2022-08-17T14:12:44.381Z,28.92
2022-08-17T14:15:14.907Z,28.96
2022-08-17T14:17:43.111Z,28.87
2022-08-17T14:20:14.083Z,28.74
2022-08-17T14:22:47.209Z,28.58
2022-08-17T14:25:20.853Z,28.36
2022-08-17T14:27:53.172Z,28.17
2022-08-17T14:30:25.438Z,28.02
2022-08-17T14:32:57.926Z,27.90
2022-08-17T14:35:28.090Z,27.74
2022-08-17T14:37:57.551Z,27.54
2022-08-17T14:40:28.040Z,27.48
2022-08-17T14:42:58.172Z,27.40
2022-08-17T14:45:32.281Z,27.35
2022-08-17T14:48:05.622Z,27.28
2022-08-17T14:50:35.700Z,27.17
2022-08-17T14:53:05.176Z,27.10
2022-08-17T14:55:35.518Z,27.00
2022-08-17T14:58:05.073Z,26.88
2022-08-17T15:00:33.381Z,26.80
2022-08-17T15:03:02.763Z,26.73
2022-08-17T15:05:34.078Z,26.71
2022-08-17T15:08:04.630Z,26.65
2022-08-17T15:10:34.978Z,26.55
2022-08-17T15:13:03.488Z,26.44
2022-08-17T15:15:32.091Z,26.27
2022-08-17T15:18:00.997Z,26.17
2022-08-17T15:20:31.175Z,26.03
2022-08-17T15:22:59.679Z,25.92
2022-08-17T15:25:30.589Z,25.76
2022-08-17T15:28:01.232Z,25.40
2022-08-17T15:30:30.625Z,25.20
2022-08-17T15:33:00.648Z,25.11
2022-08-17T15:35:32.069Z,24.94
2022-08-17T15:38:07.964Z,24.89
2022-08-17T15:40:43.051Z,24.90
2022-08-17T15:43:15.852Z,24.92
2022-08-17T15:45:45.079Z,24.85
2022-08-17T15:48:40.594Z,24.46
2022-08-17T15:51:11.409Z,23.85
2022-08-17T15:53:41.890Z,23.36
2022-08-17T15:56:11.300Z,22.98
2022-08-17T15:58:42.195Z,22.52
2022-08-17T16:01:14.792Z,22.32
2022-08-17T16:04:06.624Z,22.23
2022-08-17T16:06:36.486Z,21.99
2022-08-17T16:09:04.811Z,21.81
2022-08-17T16:11:32.942Z,21.67
2022-08-17T16:14:02.515Z,21.62
2022-08-17T16:16:31.231Z,21.68
2022-08-17T16:18:59.531Z,21.67
2022-08-17T16:21:31.160Z,21.61
2022-08-17T16:24:12.709Z,21.53
2022-08-17T16:26:43.785Z,21.49
2022-08-17T16:29:13.417Z,21.39
2022-08-17T16:31:42.425Z,21.27
2022-08-17T16:34:17.045Z,21.11
2022-08-17T16:36:53.598Z,20.94
2022-08-17T16:39:26.065Z,20.83
2022-08-17T16:41:54.805Z,20.81
2022-08-17T16:44:25.648Z,20.82
2022-08-17T16:46:53.828Z,20.86
2022-08-17T16:49:24.492Z,20.89
2022-08-17T16:52:10.014Z,20.93
2022-08-17T16:54:41.715Z,21.04
2022-08-17T16:57:09.983Z,21.12
2022-08-17T16:59:45.020Z,21.20
2022-08-17T17:02:18.113Z,21.24
2022-08-17T17:04:54.898Z,21.30
2022-08-17T17:08:03.908Z,21.34
2022-08-17T17:10:39.243Z,21.32
2022-08-17T17:13:14.531Z,21.24
2022-08-17T17:15:55.729Z,21.22
2022-08-17T17:18:37.706Z,21.27
2022-08-17T17:21:10.650Z,21.32
2022-08-17T17:23:52.969Z,21.30
2022-08-17T17:26:38.890Z,21.30
2022-08-17T17:29:28.766Z,21.25
2022-08-17T17:32:22.647Z,21.27
2022-08-17T17:35:02.885Z,21.30
2022-08-17T17:37:36.675Z,21.37
2022-08-17T17:42:42.698Z,21.42
2022-08-17T17:45:19.989Z,21.38
2022-08-17T17:47:50.742Z,21.37
2022-08-17T17:50:23.472Z,21.37
2022-08-17T17:53:04.029Z,21.39
2022-08-17T17:55:48.413Z,21.42
2022-08-17T17:58:35.425Z,21.44
2022-08-17T18:01:27.091Z,21.45
2022-08-17T18:04:20.493Z,21.40
2022-08-17T18:07:12.823Z,21.37
2022-08-17T18:10:29.611Z,21.37
2022-08-17T18:13:12.892Z,21.37
2022-08-17T18:15:51.352Z,21.37
2022-08-17T18:18:38.511Z,21.34
2022-08-17T18:21:16.730Z,21.31
2022-08-17T18:23:50.821Z,21.30
2022-08-17T18:26:48.384Z,21.27
2022-08-17T18:29:35.853Z,21.27
2022-08-17T18:32:40.745Z,21.26
2022-08-17T18:35:35.025Z,21.19
2022-08-17T18:38:24.764Z,21.18
2022-08-17T18:41:02.546Z,21.17
2022-08-17T18:43:44.446Z,21.16
2022-08-17T18:46:29.709Z,21.12
2022-08-17T18:49:01.333Z,21.08
2022-08-17T18:51:40.511Z,21.06
2022-08-17T18:54:24.298Z,21.07
2022-08-17T18:56:56.675Z,21.07
2022-08-17T18:59:30.942Z,21.04
2022-08-17T19:02:38.762Z,21.04
2022-08-17T19:05:13.747Z,21.07
2022-08-17T19:07:45.524Z,21.12
2022-08-17T19:10:23.012Z,21.14
2022-08-17T19:13:00.722Z,21.16
2022-08-17T19:15:36.687Z,21.18
2022-08-17T19:18:15.675Z,21.17
2022-08-17T19:20:59.595Z,21.15
2022-08-17T19:23:35.132Z,21.17
2022-08-17T19:26:50.326Z,21.18
2022-08-17T19:29:09.372Z,21.14
2022-08-17T19:31:38.022Z,21.15
2022-08-17T19:34:06.449Z,21.17
2022-08-17T19:36:43.383Z,21.20
2022-08-17T19:39:19.347Z,21.20
2022-08-17T19:41:58.482Z,21.16
2022-08-17T19:44:50.373Z,21.07
2022-08-17T19:47:51.248Z,21.00
2022-08-17T19:50:22.473Z,20.99
2022-08-17T19:52:57.978Z,20.99
2022-08-17T19:55:33.202Z,21.03
2022-08-17T19:58:12.390Z,21.04
2022-08-17T20:00:52.736Z,21.06
2022-08-17T20:03:27.639Z,21.09
2022-08-17T20:06:15.270Z,21.09
2022-08-17T20:08:57.163Z,21.04
2022-08-17T20:11:33.997Z,21.02
2022-08-17T20:14:09.383Z,20.98
2022-08-17T20:16:37.652Z,20.94
2022-08-17T20:19:12.387Z,20.95
2022-08-17T20:21:47.522Z,20.99
2022-08-17T20:24:23.789Z,21.02
2022-08-17T20:26:58.737Z,20.98
2022-08-17T20:29:37.445Z,20.98
2022-08-17T20:32:28.903Z,20.99
2022-08-17T20:35:22.831Z,21.02
2022-08-17T20:37:58.732Z,21.02
2022-08-17T20:40:38.300Z,21.06
2022-08-17T20:44:02.416Z,21.08
2022-08-17T20:46:52.281Z,21.12
2022-08-17T20:49:27.944Z,21.14
2022-08-17T20:52:03.005Z,21.19
2022-08-17T20:54:51.207Z,21.20
2022-08-17T20:57:49.769Z,21.23
2022-08-17T21:01:10.595Z,21.25
2022-08-17T21:03:52.265Z,21.26
2022-08-17T21:06:26.126Z,21.30
2022-08-17T21:09:00.676Z,21.31
2022-08-17T21:12:04.469Z,21.30
2022-08-17T21:14:58.618Z,21.29
2022-08-17T21:17:46.479Z,21.26
2022-08-17T21:20:32.914Z,21.24
2022-08-17T21:23:40.566Z,21.16
2022-08-17T21:26:21.422Z,21.13
2022-08-17T21:29:31.020Z,21.03
2022-08-17T21:32:25.190Z,20.91
2022-08-17T21:35:31.559Z,20.81
2022-08-17T21:38:15.076Z,20.79
2022-08-17T21:40:50.147Z,20.76
2022-08-17T21:43:29.295Z,20.74
2022-08-17T21:46:02.834Z,20.74
2022-08-17T21:48:33.532Z,20.72
2022-08-17T21:51:12.213Z,20.75
2022-08-17T21:53:46.332Z,20.78
2022-08-17T21:56:24.329Z,20.80
2022-08-17T21:58:58.674Z,20.81
2022-08-17T22:01:30.439Z,20.79
2022-08-17T22:04:06.600Z,20.77
2022-08-17T22:06:40.584Z,20.74
2022-08-17T22:09:20.244Z,20.70
2022-08-17T22:12:07.050Z,20.67
2022-08-17T22:14:52.576Z,20.65
2022-08-17T22:17:26.155Z,20.61
2022-08-17T22:19:59.038Z,20.60
2022-08-17T22:22:55.004Z,20.59
2022-08-17T22:25:25.630Z,20.58
2022-08-17T22:27:58.181Z,20.57
2022-08-17T22:30:37.541Z,20.54
2022-08-17T22:33:36.889Z,20.50
2022-08-17T22:36:22.145Z,20.49
2022-08-17T22:38:53.539Z,20.48
2022-08-17T22:41:48.239Z,20.49
2022-08-17T22:44:24.984Z,20.46
2022-08-17T22:47:11.152Z,20.47
2022-08-17T22:49:53.285Z,20.47
2022-08-17T22:52:35.611Z,20.51
2022-08-17T22:55:34.801Z,20.50
2022-08-17T22:58:27.830Z,20.47
2022-08-17T23:00:56.341Z,20.46
2022-08-17T23:03:28.546Z,20.46
2022-08-17T23:06:07.664Z,20.46
2022-08-17T23:08:43.844Z,20.46
2022-08-17T23:11:14.282Z,20.42
2022-08-17T23:13:42.443Z,20.41
2022-08-17T23:16:10.940Z,20.40
2022-08-17T23:18:39.134Z,20.41
2022-08-17T23:21:07.744Z,20.41
2022-08-17T23:23:37.960Z,20.42
2022-08-17T23:26:10.418Z,20.43
2022-08-17T23:28:41.025Z,20.44
2022-08-17T23:31:09.403Z,20.46
2022-08-17T23:33:39.377Z,20.43
2022-08-17T23:36:09.783Z,20.45
2022-08-17T23:38:38.171Z,20.47
2022-08-17T23:41:12.745Z,20.51
2022-08-17T23:43:44.743Z,20.55
2022-08-17T23:46:13.114Z,20.59
2022-08-17T23:48:42.101Z,20.60
2022-08-17T23:51:16.115Z,20.60
2022-08-17T23:53:48.132Z,20.60
2022-08-17T23:56:22.683Z,20.60
2022-08-17T23:58:52.402Z,20.59
